createdAt,value
2022-09-03T00:00:06.607Z,25.8100
2022-09-03T00:00:17.739Z,25.8100
2022-09-03T00:00:28.866Z,25.8100
2022-09-03T00:00:39.998Z,25.8200
2022-09-03T00:00:51.041Z,25.8200
2022-09-03T00:01:02.319Z,25.8100
2022-09-03T00:01:13.497Z,25.8100
2022-09-03T00:01:24.650Z,25.8000
2022-09-03T00:01:35.811Z,25.8000
2022-09-03T00:01:46.965Z,25.8100
2022-09-03T00:01:58.200Z,25.8200
2022-09-03T00:02:09.410Z,25.8300
2022-09-03T00:02:20.575Z,25.8400
2022-09-03T00:02:31.758Z,25.8300
2022-09-03T00:02:42.936Z,25.8200
2022-09-03T00:02:54.132Z,25.8100
2022-09-03T00:03:05.574Z,25.8100
2022-09-03T00:03:16.678Z,25.8000
2022-09-03T00:03:27.804Z,25.8000
2022-09-03T00:03:38.929Z,25.7900
2022-09-03T00:03:50.055Z,25.7800
2022-09-03T00:04:01.188Z,25.7700
2022-09-03T00:04:12.372Z,25.7600
2022-09-03T00:04:25.817Z,25.7500
2022-09-03T00:04:37.340Z,25.7400
2022-09-03T00:04:48.540Z,25.7100
2022-09-03T00:04:59.791Z,25.7000
2022-09-03T00:05:11.070Z,25.7000
2022-09-03T00:05:22.194Z,25.6900
2022-09-03T00:05:33.315Z,25.6800
2022-09-03T00:05:44.444Z,25.6800
2022-09-03T00:05:55.570Z,25.6700
2022-09-03T00:06:06.705Z,25.6700
2022-09-03T00:06:17.830Z,25.6800
2022-09-03T00:06:29.010Z,25.7000
2022-09-03T00:06:40.139Z,25.7200
2022-09-03T00:06:51.269Z,25.7400
2022-09-03T00:07:02.338Z,25.7600
2022-09-03T00:07:13.645Z,25.7700
2022-09-03T00:07:24.774Z,25.7700
2022-09-03T00:07:35.902Z,25.7800
2022-09-03T00:07:47.775Z,25.7800
2022-09-03T00:07:59.141Z,25.7800
2022-09-03T00:08:10.454Z,25.7900
2022-09-03T00:08:21.728Z,25.7900
2022-09-03T00:08:32.851Z,25.7900
2022-09-03T00:08:43.989Z,25.7800
2022-09-03T00:08:55.122Z,25.7700
2022-09-03T00:09:07.234Z,25.7700
2022-09-03T00:09:18.521Z,25.7700
2022-09-03T00:09:31.405Z,25.7800
2022-09-03T00:09:42.537Z,25.7800
2022-09-03T00:09:53.669Z,25.8000
2022-09-03T00:10:04.829Z,25.8200
2022-09-03T00:10:16.369Z,25.8300
2022-09-03T00:10:27.520Z,25.8400
2022-09-03T00:10:38.639Z,25.8300
2022-09-03T00:10:49.817Z,25.8400
2022-09-03T00:11:01.019Z,25.8300
2022-09-03T00:11:12.150Z,25.8300
2022-09-03T00:11:23.655Z,25.8200
2022-09-03T00:11:35.003Z,25.8100
2022-09-03T00:11:46.131Z,25.8200
2022-09-03T00:11:57.331Z,25.8300
2022-09-03T00:12:08.462Z,25.8400
2022-09-03T00:12:19.591Z,25.8500
2022-09-03T00:12:30.706Z,25.8600
2022-09-03T00:12:41.830Z,25.8700
2022-09-03T00:12:53.116Z,25.8700
2022-09-03T00:13:04.232Z,25.8800
2022-09-03T00:13:15.415Z,25.8800
2022-09-03T00:13:26.752Z,25.8700
2022-09-03T00:13:37.877Z,25.8500
2022-09-03T00:13:49.006Z,25.8400
2022-09-03T00:14:00.140Z,25.8300
2022-09-03T00:14:11.297Z,25.8200
2022-09-03T00:14:22.436Z,25.8100
2022-09-03T00:14:33.568Z,25.7900
2022-09-03T00:14:44.702Z,25.7800
2022-09-03T00:14:55.896Z,25.7700
2022-09-03T00:15:07.054Z,25.7600
2022-09-03T00:15:18.169Z,25.7500
2022-09-03T00:15:29.456Z,25.7500
2022-09-03T00:15:40.690Z,25.7500
2022-09-03T00:15:51.953Z,25.7500
2022-09-03T00:16:03.153Z,25.7600
2022-09-03T00:16:14.347Z,25.7600
2022-09-03T00:16:25.563Z,25.7600
2022-09-03T00:16:36.686Z,25.7500
2022-09-03T00:16:47.817Z,25.7500
2022-09-03T00:16:58.955Z,25.7400
2022-09-03T00:17:10.093Z,25.7300
2022-09-03T00:17:21.218Z,25.7200
2022-09-03T00:17:32.507Z,25.7100
2022-09-03T00:17:43.630Z,25.7100
2022-09-03T00:17:54.767Z,25.7000
2022-09-03T00:18:05.906Z,25.7000
2022-09-03T00:18:17.039Z,25.7000
2022-09-03T00:18:28.176Z,25.7000
2022-09-03T00:18:39.307Z,25.7000
2022-09-03T00:18:50.443Z,25.7000
2022-09-03T00:19:01.573Z,25.7100
2022-09-03T00:19:12.698Z,25.7200
2022-09-03T00:19:23.829Z,25.7300
2022-09-03T00:19:35.120Z,25.7300
2022-09-03T00:19:46.254Z,25.7200
2022-09-03T00:19:57.386Z,25.7200
2022-09-03T00:20:08.662Z,25.7100
2022-09-03T00:20:19.794Z,25.7000
2022-09-03T00:20:31.004Z,25.6900
2022-09-03T00:20:42.136Z,25.6900
2022-09-03T00:20:53.353Z,25.6900
2022-09-03T00:21:04.537Z,25.6900
2022-09-03T00:21:15.737Z,25.6800
2022-09-03T00:21:26.856Z,25.6700
2022-09-03T00:21:38.163Z,25.6700
2022-09-03T00:21:49.337Z,25.6600
2022-09-03T00:22:00.469Z,25.6500
2022-09-03T00:22:11.597Z,25.6400
2022-09-03T00:22:22.730Z,25.6400
2022-09-03T00:22:33.867Z,25.6500
2022-09-03T00:22:45.005Z,25.6600
2022-09-03T00:22:56.136Z,25.6700
2022-09-03T00:23:07.266Z,25.6800
2022-09-03T00:23:18.399Z,25.7000
2022-09-03T00:23:29.530Z,25.7100
2022-09-03T00:23:40.838Z,25.7300
2022-09-03T00:23:51.966Z,25.7400
2022-09-03T00:24:03.106Z,25.7500
2022-09-03T00:24:15.069Z,25.7500
2022-09-03T00:24:26.483Z,25.7500
2022-09-03T00:24:37.659Z,25.7400
2022-09-03T00:24:48.790Z,25.7300
2022-09-03T00:24:59.912Z,25.7300
2022-09-03T00:25:11.069Z,25.7300
2022-09-03T00:25:22.196Z,25.7500
2022-09-03T00:25:36.197Z,25.7600
2022-09-03T00:25:47.479Z,25.7400
2022-09-03T00:25:58.627Z,25.7400
2022-09-03T00:26:09.825Z,25.7300
2022-09-03T00:26:21.013Z,25.7200
2022-09-03T00:26:32.136Z,25.7100
2022-09-03T00:26:43.262Z,25.7100
2022-09-03T00:26:54.391Z,25.7000
2022-09-03T00:27:05.525Z,25.7000
2022-09-03T00:27:16.702Z,25.7000
2022-09-03T00:27:27.903Z,25.7000
2022-09-03T00:27:39.098Z,25.7000
2022-09-03T00:27:50.433Z,25.6900
2022-09-03T00:28:01.565Z,25.7000
2022-09-03T00:28:12.703Z,25.7100
2022-09-03T00:28:24.038Z,25.7100
2022-09-03T00:28:35.233Z,25.7100
2022-09-03T00:28:46.347Z,25.7000
2022-09-03T00:28:58.809Z,25.7000
2022-09-03T00:29:11.026Z,25.7000
2022-09-03T00:29:22.152Z,25.6900
2022-09-03T00:29:33.337Z,25.6900
2022-09-03T00:29:44.536Z,25.7000
2022-09-03T00:29:55.877Z,25.7100
2022-09-03T00:30:07.036Z,25.7100
2022-09-03T00:30:18.197Z,25.7000
2022-09-03T00:30:30.085Z,25.6900
2022-09-03T00:30:41.231Z,25.6900
2022-09-03T00:30:52.619Z,25.7000
2022-09-03T00:31:03.817Z,25.7000
2022-09-03T00:31:15.031Z,25.7100
2022-09-03T00:31:26.241Z,25.7000
2022-09-03T00:31:37.418Z,25.6900
2022-09-03T00:31:48.597Z,25.6800
2022-09-03T00:31:59.880Z,25.6700
2022-09-03T00:32:11.096Z,25.6700
2022-09-03T00:32:22.292Z,25.6600
2022-09-03T00:32:33.428Z,25.6600
2022-09-03T00:32:44.875Z,25.6600
2022-09-03T00:32:55.995Z,25.6600
2022-09-03T00:33:07.125Z,25.6600
2022-09-03T00:33:18.294Z,25.6700
2022-09-03T00:33:29.497Z,25.6700
2022-09-03T00:33:40.696Z,25.6700
2022-09-03T00:33:51.897Z,25.6700
2022-09-03T00:34:03.166Z,25.6700
2022-09-03T00:34:14.299Z,25.6600
2022-09-03T00:34:25.499Z,25.6600
2022-09-03T00:34:36.702Z,25.6500
2022-09-03T00:34:47.831Z,25.6400
2022-09-03T00:34:58.956Z,25.6400
2022-09-03T00:35:10.087Z,25.6400
2022-09-03T00:35:21.265Z,25.6400
2022-09-03T00:35:32.412Z,25.6300
2022-09-03T00:35:43.568Z,25.6300
2022-09-03T00:35:54.696Z,25.6300
2022-09-03T00:36:05.977Z,25.6400
2022-09-03T00:36:17.176Z,25.6600
2022-09-03T00:36:28.386Z,25.6700
2022-09-03T00:36:39.576Z,25.6800
2022-09-03T00:36:50.712Z,25.6700
2022-09-03T00:37:01.843Z,25.6700
2022-09-03T00:37:15.644Z,25.6600
2022-09-03T00:37:27.070Z,25.6400
2022-09-03T00:37:38.565Z,25.6400
2022-09-03T00:37:49.699Z,25.6400
2022-09-03T00:38:00.847Z,25.6400
2022-09-03T00:38:12.105Z,25.6500
2022-09-03T00:38:23.386Z,25.6600
2022-09-03T00:38:34.520Z,25.6800
2022-09-03T00:38:45.647Z,25.6900
2022-09-03T00:38:56.777Z,25.7100
2022-09-03T00:39:07.905Z,25.7300
2022-09-03T00:39:19.143Z,25.7400
2022-09-03T00:39:30.353Z,25.7600
2022-09-03T00:39:41.561Z,25.7800
2022-09-03T00:39:52.717Z,25.7900
2022-09-03T00:40:03.915Z,25.7800
2022-09-03T00:40:15.191Z,25.7800
2022-09-03T00:40:26.362Z,25.7700
2022-09-03T00:40:37.487Z,25.7700
2022-09-03T00:40:48.614Z,25.7600
2022-09-03T00:40:59.745Z,25.7500
2022-09-03T00:41:11.027Z,25.7400
2022-09-03T00:41:22.170Z,25.7200
2022-09-03T00:41:33.341Z,25.7100
2022-09-03T00:41:44.536Z,25.7100
2022-09-03T00:41:55.736Z,25.7000
2022-09-03T00:42:06.876Z,25.7000
2022-09-03T00:42:18.147Z,25.6900
2022-09-03T00:42:29.346Z,25.6900
2022-09-03T00:42:40.528Z,25.6900
2022-09-03T00:42:51.656Z,25.7100
2022-09-03T00:43:02.792Z,25.7200
2022-09-03T00:43:13.943Z,25.7200
2022-09-03T00:43:25.095Z,25.7300
2022-09-03T00:43:36.221Z,25.7300
2022-09-03T00:43:47.421Z,25.7200
2022-09-03T00:43:58.549Z,25.7200
2022-09-03T00:44:09.686Z,25.7300
2022-09-03T00:44:23.555Z,25.7300
2022-09-03T00:44:34.694Z,25.7100
2022-09-03T00:44:45.837Z,25.7000
2022-09-03T00:44:56.973Z,25.6900
2022-09-03T00:45:08.096Z,25.6900
2022-09-03T00:45:19.261Z,25.6800
2022-09-03T00:45:30.492Z,25.6800
2022-09-03T00:45:41.654Z,25.6700
2022-09-03T00:45:52.792Z,25.6600
2022-09-03T00:46:03.990Z,25.6500
2022-09-03T00:46:15.128Z,25.6500
2022-09-03T00:46:26.414Z,25.6400
2022-09-03T00:46:37.728Z,25.6300
2022-09-03T00:46:48.940Z,25.6300
2022-09-03T00:47:00.070Z,25.6300
2022-09-03T00:47:11.249Z,25.6400
2022-09-03T00:47:22.376Z,25.6500
2022-09-03T00:47:33.515Z,25.6500
2022-09-03T00:47:44.650Z,25.6600
2022-09-03T00:47:55.784Z,25.6500
2022-09-03T00:48:06.916Z,25.6500
2022-09-03T00:48:18.058Z,25.6700
2022-09-03T00:48:29.576Z,25.6800
2022-09-03T00:48:41.175Z,25.6800
2022-09-03T00:48:52.303Z,25.6800
2022-09-03T00:49:04.424Z,25.6800
2022-09-03T00:49:15.562Z,25.6900
2022-09-03T00:49:26.696Z,25.6900
2022-09-03T00:49:37.829Z,25.6900
2022-09-03T00:49:49.008Z,25.6900
2022-09-03T00:50:00.150Z,25.6900
2022-09-03T00:50:11.267Z,25.6900
2022-09-03T00:50:22.394Z,25.6800
2022-09-03T00:50:33.724Z,25.6700
2022-09-03T00:50:44.852Z,25.6600
2022-09-03T00:50:55.979Z,25.6500
2022-09-03T00:51:07.117Z,25.6500
2022-09-03T00:51:18.302Z,25.6500
2022-09-03T00:51:29.500Z,25.6500
2022-09-03T00:51:40.699Z,25.6400
2022-09-03T00:51:51.916Z,25.6400
2022-09-03T00:52:03.026Z,25.6300
2022-09-03T00:52:14.208Z,25.6300
2022-09-03T00:52:25.345Z,25.6200
2022-09-03T00:52:36.622Z,25.6200
2022-09-03T00:52:47.763Z,25.6200
2022-09-03T00:52:58.900Z,25.6100
2022-09-03T00:53:10.035Z,25.6000
2022-09-03T00:53:21.167Z,25.6000
2022-09-03T00:53:32.296Z,25.5900
2022-09-03T00:53:43.444Z,25.5900
2022-09-03T00:53:54.579Z,25.5900
2022-09-03T00:54:05.715Z,25.5900
2022-09-03T00:54:16.855Z,25.5900
2022-09-03T00:54:28.055Z,25.5900
2022-09-03T00:54:39.408Z,25.5900
2022-09-03T00:54:50.535Z,25.5900
2022-09-03T00:55:01.662Z,25.5800
2022-09-03T00:55:12.857Z,25.5800
2022-09-03T00:55:24.057Z,25.5800
2022-09-03T00:55:35.196Z,25.5900
2022-09-03T00:55:46.321Z,25.6000
2022-09-03T00:55:57.462Z,25.6000
2022-09-03T00:56:08.588Z,25.6100
2022-09-03T00:56:19.735Z,25.6100
2022-09-03T00:56:30.938Z,25.6100
2022-09-03T00:56:42.286Z,25.6100
2022-09-03T00:56:53.415Z,25.6100
2022-09-03T00:57:04.547Z,25.6100
2022-09-03T00:57:15.743Z,25.6100
2022-09-03T00:57:26.936Z,25.6100
2022-09-03T00:57:38.066Z,25.6100
2022-09-03T00:57:49.198Z,25.6200
2022-09-03T00:58:00.336Z,25.6400
2022-09-03T00:58:11.477Z,25.6600
2022-09-03T00:58:22.676Z,25.6700
2022-09-03T00:58:33.840Z,25.6800
2022-09-03T00:58:45.156Z,25.6800
2022-09-03T00:58:56.294Z,25.6800
2022-09-03T00:59:07.428Z,25.6800
2022-09-03T00:59:18.618Z,25.6800
2022-09-03T00:59:29.817Z,25.6800
2022-09-03T00:59:41.009Z,25.6800
2022-09-03T00:59:52.221Z,25.6800
2022-09-03T01:00:03.342Z,25.6800
2022-09-03T01:00:14.476Z,25.6800
2022-09-03T01:00:25.607Z,25.6800
2022-09-03T01:00:36.766Z,25.6700
2022-09-03T01:00:48.057Z,25.6600
2022-09-03T01:00:59.198Z,25.6600
2022-09-03T01:01:10.357Z,25.6500
2022-09-03T01:01:21.606Z,25.6500
2022-09-03T01:01:32.860Z,25.6400
2022-09-03T01:01:44.094Z,25.6400
2022-09-03T01:01:55.487Z,25.6300
2022-09-03T01:02:07.045Z,25.6200
2022-09-03T01:02:18.288Z,25.6100
2022-09-03T01:02:29.833Z,25.6000
2022-09-03T01:02:41.069Z,25.5900
2022-09-03T01:02:52.255Z,25.5900
2022-09-03T01:03:03.506Z,25.6000
2022-09-03T01:03:14.635Z,25.6000
2022-09-03T01:03:25.771Z,25.6100
2022-09-03T01:03:36.924Z,25.6100
2022-09-03T01:03:48.065Z,25.6100
2022-09-03T01:03:59.257Z,25.6100
2022-09-03T01:04:10.389Z,25.6100
2022-09-03T01:04:21.526Z,25.6000
2022-09-03T01:04:32.678Z,25.6000
2022-09-03T01:04:43.805Z,25.5900
2022-09-03T01:04:54.936Z,25.5900
2022-09-03T01:05:06.292Z,25.5900
2022-09-03T01:05:17.521Z,25.5800
2022-09-03T01:05:28.651Z,25.5800
2022-09-03T01:05:39.799Z,25.5800
2022-09-03T01:05:50.926Z,25.5800
2022-09-03T01:06:02.179Z,25.5800
2022-09-03T01:06:13.338Z,25.5800
2022-09-03T01:06:24.534Z,25.5800
2022-09-03T01:06:35.667Z,25.5800
2022-09-03T01:06:46.809Z,25.5700
2022-09-03T01:06:57.939Z,25.5700
2022-09-03T01:07:09.224Z,25.5700
2022-09-03T01:07:20.356Z,25.5700
2022-09-03T01:07:31.493Z,25.5700
2022-09-03T01:07:42.618Z,25.5800
2022-09-03T01:07:53.747Z,25.5800
2022-09-03T01:08:04.874Z,25.5800
2022-09-03T01:08:16.007Z,25.5800
2022-09-03T01:08:27.146Z,25.5900
2022-09-03T01:08:38.290Z,25.6000
2022-09-03T01:08:49.490Z,25.6300
2022-09-03T01:09:00.582Z,25.6400
2022-09-03T01:09:11.846Z,25.6400
2022-09-03T01:09:22.975Z,25.6500
2022-09-03T01:09:34.116Z,25.6500
2022-09-03T01:09:45.248Z,25.6400
2022-09-03T01:09:56.384Z,25.6400
2022-09-03T01:10:07.574Z,25.6300
2022-09-03T01:10:18.708Z,25.6300
2022-09-03T01:10:29.835Z,25.6200
2022-09-03T01:10:40.995Z,25.6200
2022-09-03T01:10:52.134Z,25.6200
2022-09-03T01:11:03.264Z,25.6100
2022-09-03T01:11:14.604Z,25.6100
2022-09-03T01:11:25.723Z,25.6100
2022-09-03T01:11:36.849Z,25.6000
2022-09-03T01:11:47.975Z,25.6000
2022-09-03T01:11:59.121Z,25.6000
2022-09-03T01:12:10.260Z,25.6000
2022-09-03T01:12:21.383Z,25.6000
2022-09-03T01:12:32.514Z,25.6100
2022-09-03T01:12:43.649Z,25.6200
2022-09-03T01:12:54.773Z,25.6300
2022-09-03T01:13:05.912Z,25.6400
2022-09-03T01:13:17.164Z,25.6500
2022-09-03T01:13:28.294Z,25.6600
2022-09-03T01:13:39.451Z,25.6600
2022-09-03T01:13:50.617Z,25.6700
2022-09-03T01:14:01.818Z,25.6700
2022-09-03T01:14:12.887Z,25.6700
2022-09-03T01:14:24.035Z,25.6600
2022-09-03T01:14:35.172Z,25.6700
2022-09-03T01:14:46.294Z,25.6700
2022-09-03T01:14:57.431Z,25.6900
2022-09-03T01:15:08.557Z,25.7000
2022-09-03T01:15:19.620Z,25.7200
2022-09-03T01:15:30.835Z,25.7300
2022-09-03T01:15:42.224Z,25.7400
2022-09-03T01:15:53.442Z,25.7400
2022-09-03T01:16:04.695Z,25.7300
2022-09-03T01:16:15.978Z,25.7200
2022-09-03T01:16:27.096Z,25.7000
2022-09-03T01:16:38.228Z,25.6900
2022-09-03T01:16:49.371Z,25.6800
2022-09-03T01:17:00.497Z,25.6800
2022-09-03T01:17:11.639Z,25.6800
2022-09-03T01:17:22.779Z,25.6900
2022-09-03T01:17:33.987Z,25.6900
2022-09-03T01:17:45.325Z,25.7000
2022-09-03T01:17:56.465Z,25.7000
2022-09-03T01:18:07.604Z,25.7000
2022-09-03T01:18:18.770Z,25.7000
2022-09-03T01:18:29.983Z,25.7100
2022-09-03T01:18:41.167Z,25.7200
2022-09-03T01:18:52.287Z,25.7200
2022-09-03T01:19:03.427Z,25.7200
2022-09-03T01:19:14.553Z,25.7200
2022-09-03T01:19:25.687Z,25.7100
2022-09-03T01:19:36.848Z,25.7100
2022-09-03T01:19:48.131Z,25.7100
2022-09-03T01:19:59.355Z,25.7000
2022-09-03T01:20:10.483Z,25.6900
2022-09-03T01:20:21.656Z,25.6900
2022-09-03T01:20:32.778Z,25.6900
2022-09-03T01:20:43.938Z,25.6900
2022-09-03T01:20:55.069Z,25.6800
2022-09-03T01:21:06.251Z,25.6700
2022-09-03T01:21:17.375Z,25.6700
2022-09-03T01:21:28.543Z,25.6700
2022-09-03T01:21:39.736Z,25.6900
2022-09-03T01:21:51.077Z,25.7100
2022-09-03T01:22:02.215Z,25.7300
2022-09-03T01:22:13.337Z,25.7400
2022-09-03T01:22:24.544Z,25.7500
2022-09-03T01:22:35.735Z,25.7600
2022-09-03T01:22:46.930Z,25.7700
2022-09-03T01:22:58.062Z,25.7700
2022-09-03T01:23:09.199Z,25.7800
2022-09-03T01:23:20.336Z,25.7900
2022-09-03T01:23:31.460Z,25.8000
2022-09-03T01:23:42.614Z,25.8100
2022-09-03T01:23:53.887Z,25.8200
2022-09-03T01:24:05.016Z,25.8400
2022-09-03T01:24:16.212Z,25.8500
2022-09-03T01:24:27.336Z,25.8600
2022-09-03T01:24:38.476Z,25.8500
2022-09-03T01:24:49.607Z,25.8400
2022-09-03T01:25:00.735Z,25.8200
2022-09-03T01:25:11.903Z,25.8000
2022-09-03T01:25:23.097Z,25.7800
2022-09-03T01:25:34.297Z,25.7700
2022-09-03T01:25:45.535Z,25.7500
2022-09-03T01:25:56.835Z,25.7400
2022-09-03T01:26:07.984Z,25.7500
2022-09-03T01:26:19.120Z,25.7500
2022-09-03T01:26:30.297Z,25.7700
2022-09-03T01:26:41.424Z,25.7800
2022-09-03T01:26:52.554Z,25.7900
2022-09-03T01:27:03.684Z,25.7900
2022-09-03T01:27:14.816Z,25.7800
2022-09-03T01:27:25.985Z,25.7900
2022-09-03T01:27:37.176Z,25.8000
2022-09-03T01:27:48.306Z,25.8000
2022-09-03T01:27:59.576Z,25.8000
2022-09-03T01:28:10.786Z,25.8100
2022-09-03T01:28:22.080Z,25.8200
2022-09-03T01:28:33.402Z,25.8200
2022-09-03T01:28:44.540Z,25.8200
2022-09-03T01:28:55.679Z,25.8100
2022-09-03T01:29:06.826Z,25.8000
2022-09-03T01:29:17.976Z,25.8000
2022-09-03T01:29:29.175Z,25.8000
2022-09-03T01:29:40.305Z,25.8100
2022-09-03T01:29:51.437Z,25.8100
2022-09-03T01:30:02.717Z,25.8200
2022-09-03T01:30:13.856Z,25.8200
2022-09-03T01:30:24.988Z,25.8200
2022-09-03T01:30:36.133Z,25.8200
2022-09-03T01:30:47.487Z,25.8100
2022-09-03T01:30:59.954Z,25.8100
2022-09-03T01:31:11.109Z,25.7800
2022-09-03T01:31:22.296Z,25.7700
2022-09-03T01:31:33.521Z,25.7500
2022-09-03T01:31:44.619Z,25.7400
2022-09-03T01:31:55.774Z,25.7200
2022-09-03T01:32:07.072Z,25.7100
2022-09-03T01:32:18.207Z,25.7000
2022-09-03T01:32:29.354Z,25.6900
2022-09-03T01:32:40.532Z,25.6900
2022-09-03T01:32:51.664Z,25.6900
2022-09-03T01:33:02.808Z,25.6900
2022-09-03T01:33:13.978Z,25.6900
2022-09-03T01:33:25.115Z,25.6800
2022-09-03T01:33:36.247Z,25.6700
2022-09-03T01:33:47.417Z,25.6700
2022-09-03T01:33:58.551Z,25.6600
2022-09-03T01:34:09.818Z,25.6500
2022-09-03T01:34:21.013Z,25.6500
2022-09-03T01:34:32.148Z,25.6400
2022-09-03T01:34:43.265Z,25.6400
2022-09-03T01:34:54.394Z,25.6400
2022-09-03T01:35:05.524Z,25.6400
2022-09-03T01:35:16.701Z,25.6400
2022-09-03T01:35:27.826Z,25.6300
2022-09-03T01:35:39.117Z,25.6300
2022-09-03T01:35:50.351Z,25.6200
2022-09-03T01:36:01.494Z,25.6200
2022-09-03T01:36:12.765Z,25.6200
2022-09-03T01:36:23.899Z,25.6100
2022-09-03T01:36:35.092Z,25.6000
2022-09-03T01:36:46.227Z,25.6000
2022-09-03T01:36:57.357Z,25.5900
2022-09-03T01:37:08.491Z,25.5900
2022-09-03T01:37:19.614Z,25.5900
2022-09-03T01:37:30.781Z,25.6000
2022-09-03T01:37:41.904Z,25.6000
2022-09-03T01:37:53.043Z,25.6200
2022-09-03T01:38:04.162Z,25.6300
2022-09-03T01:38:15.495Z,25.6500
2022-09-03T01:38:26.651Z,25.6700
2022-09-03T01:38:37.790Z,25.6900
2022-09-03T01:38:48.914Z,25.7000
2022-09-03T01:39:00.037Z,25.7000
2022-09-03T01:39:11.173Z,25.7000
2022-09-03T01:39:22.359Z,25.6900
2022-09-03T01:39:33.497Z,25.6800
2022-09-03T01:39:44.694Z,25.6700
2022-09-03T01:39:55.892Z,25.6600
2022-09-03T01:40:07.012Z,25.6600
2022-09-03T01:40:18.276Z,25.6500
2022-09-03T01:40:29.428Z,25.6400
2022-09-03T01:40:40.555Z,25.6400
2022-09-03T01:40:51.774Z,25.6400
2022-09-03T01:41:02.939Z,25.6500
2022-09-03T01:41:14.066Z,25.6600
2022-09-03T01:41:25.193Z,25.6600
2022-09-03T01:41:36.334Z,25.6600
2022-09-03T01:41:47.464Z,25.6600
2022-09-03T01:41:58.589Z,25.6500
2022-09-03T01:42:09.733Z,25.6500
2022-09-03T01:42:21.315Z,25.6500
2022-09-03T01:42:32.415Z,25.6500
2022-09-03T01:42:43.562Z,25.6400
2022-09-03T01:42:54.682Z,25.6400
2022-09-03T01:43:05.815Z,25.6500
2022-09-03T01:43:17.015Z,25.6500
2022-09-03T01:43:28.145Z,25.6500
2022-09-03T01:43:43.398Z,25.6600
2022-09-03T01:43:56.375Z,25.6600
2022-09-03T01:44:07.505Z,25.6600
2022-09-03T01:44:18.625Z,25.6600
2022-09-03T01:44:29.922Z,25.6600
2022-09-03T01:44:41.049Z,25.6600
2022-09-03T01:44:52.916Z,25.6600
2022-09-03T01:45:04.309Z,25.6600
2022-09-03T01:45:15.443Z,25.6800
2022-09-03T01:45:26.614Z,25.6900
2022-09-03T01:45:37.744Z,25.7100
2022-09-03T01:45:53.193Z,25.7200
2022-09-03T01:46:04.425Z,25.7000
2022-09-03T01:46:17.034Z,25.7100
2022-09-03T01:46:28.550Z,25.7100
2022-09-03T01:46:41.770Z,25.7200
2022-09-03T01:46:52.892Z,25.7300
2022-09-03T01:47:04.023Z,25.7300
2022-09-03T01:47:15.162Z,25.7300
2022-09-03T01:47:26.301Z,25.7300
2022-09-03T01:47:37.502Z,25.7200
2022-09-03T01:47:48.624Z,25.7200
2022-09-03T01:47:59.755Z,25.7200
2022-09-03T01:48:10.893Z,25.7200
2022-09-03T01:48:22.140Z,25.7100
2022-09-03T01:48:33.274Z,25.7200
2022-09-03T01:48:44.719Z,25.7300
2022-09-03T01:48:55.895Z,25.7500
2022-09-03T01:49:07.026Z,25.7700
2022-09-03T01:49:18.154Z,25.7800
2022-09-03T01:49:29.198Z,25.7900
2022-09-03T01:49:40.375Z,25.8000
2022-09-03T01:49:51.497Z,25.8100
2022-09-03T01:50:02.631Z,25.8200
2022-09-03T01:50:13.776Z,25.8200
2022-09-03T01:50:24.906Z,25.8100
2022-09-03T01:50:36.037Z,25.8000
2022-09-03T01:50:47.176Z,25.7900
2022-09-03T01:50:58.505Z,25.7800
2022-09-03T01:51:09.653Z,25.7600
2022-09-03T01:51:20.852Z,25.7500
2022-09-03T01:51:31.991Z,25.7300
2022-09-03T01:51:43.251Z,25.7200
2022-09-03T01:51:54.370Z,25.7200
2022-09-03T01:52:05.494Z,25.7200
2022-09-03T01:52:16.633Z,25.7400
2022-09-03T01:52:27.753Z,25.7500
2022-09-03T01:52:38.933Z,25.7600
2022-09-03T01:52:50.142Z,25.7600
2022-09-03T01:53:01.486Z,25.7500
2022-09-03T01:53:12.625Z,25.7400
2022-09-03T01:53:23.755Z,25.7200
2022-09-03T01:53:34.937Z,25.7100
2022-09-03T01:53:46.134Z,25.7100
2022-09-03T01:53:57.342Z,25.7200
2022-09-03T01:54:10.870Z,25.7200
2022-09-03T01:54:25.509Z,25.7300
2022-09-03T01:54:36.695Z,25.7000
2022-09-03T01:54:47.819Z,25.7000
2022-09-03T01:54:58.957Z,25.7000
2022-09-03T01:55:10.236Z,25.7100
2022-09-03T01:55:21.382Z,25.7000
2022-09-03T01:55:32.531Z,25.7000
2022-09-03T01:55:43.669Z,25.7000
2022-09-03T01:55:54.814Z,25.7000
2022-09-03T01:56:06.013Z,25.7000
2022-09-03T01:56:17.176Z,25.7000
2022-09-03T01:56:28.303Z,25.7000
2022-09-03T01:56:39.445Z,25.7000
2022-09-03T01:56:50.613Z,25.6900
2022-09-03T01:57:01.735Z,25.6900
2022-09-03T01:57:34.481Z,25.6900
2022-09-03T01:57:35.529Z,25.6800
2022-09-03T01:57:47.236Z,25.6400
2022-09-03T01:57:58.383Z,25.6300
2022-09-03T01:58:09.523Z,25.6400
2022-09-03T01:58:20.701Z,25.6600
2022-09-03T01:58:31.902Z,25.6700
2022-09-03T01:58:43.103Z,25.6800
2022-09-03T01:58:54.299Z,25.6800
2022-09-03T01:59:05.487Z,25.6700
2022-09-03T01:59:16.619Z,25.6700
2022-09-03T01:59:27.920Z,25.6600
2022-09-03T01:59:39.099Z,25.6500
2022-09-03T01:59:50.297Z,25.6400
2022-09-03T02:00:01.500Z,25.6300
2022-09-03T02:00:12.705Z,25.6300
2022-09-03T02:00:23.899Z,25.6300
2022-09-03T02:00:35.100Z,25.6300
2022-09-03T02:00:46.301Z,25.6300
2022-09-03T02:00:57.494Z,25.6200
2022-09-03T02:01:08.749Z,25.6200
2022-09-03T02:01:19.923Z,25.6200
2022-09-03T02:01:31.321Z,25.6100
2022-09-03T02:01:42.480Z,25.6100
2022-09-03T02:01:53.621Z,25.6100
2022-09-03T02:02:04.735Z,25.6300
2022-09-03T02:02:15.995Z,25.6400
2022-09-03T02:02:27.177Z,25.6600
2022-09-03T02:02:38.413Z,25.6700
2022-09-03T02:02:49.580Z,25.6700
2022-09-03T02:03:00.751Z,25.6800
2022-09-03T02:03:11.893Z,25.6800
2022-09-03T02:03:23.016Z,25.6700
2022-09-03T02:03:34.295Z,25.6700
2022-09-03T02:03:45.417Z,25.6600
2022-09-03T02:03:56.563Z,25.6500
2022-09-03T02:04:07.689Z,25.6400
2022-09-03T02:04:18.824Z,25.6300
2022-09-03T02:04:29.955Z,25.6200
2022-09-03T02:04:41.085Z,25.6200
2022-09-03T02:04:52.229Z,25.6200
2022-09-03T02:05:03.361Z,25.6100
2022-09-03T02:05:14.480Z,25.6200
2022-09-03T02:05:25.656Z,25.6200
2022-09-03T02:05:36.932Z,25.6300
2022-09-03T02:05:48.074Z,25.6400
2022-09-03T02:05:59.258Z,25.6600
2022-09-03T02:06:10.480Z,25.6600
2022-09-03T02:06:21.659Z,25.6700
2022-09-03T02:06:32.858Z,25.6600
2022-09-03T02:06:44.048Z,25.6500
2022-09-03T02:06:55.179Z,25.6400
2022-09-03T02:07:06.324Z,25.6300
2022-09-03T02:07:17.470Z,25.6200
2022-09-03T02:07:28.617Z,25.6200
2022-09-03T02:07:39.897Z,25.6100
2022-09-03T02:07:51.042Z,25.6000
2022-09-03T02:08:02.182Z,25.6000
2022-09-03T02:08:13.341Z,25.5900
2022-09-03T02:08:24.582Z,25.6000
2022-09-03T02:08:36.065Z,25.6000
2022-09-03T02:08:47.424Z,25.6000
2022-09-03T02:08:58.552Z,25.6100
2022-09-03T02:09:09.682Z,25.6200
2022-09-03T02:09:20.856Z,25.6200
2022-09-03T02:09:32.684Z,25.6200
2022-09-03T02:09:44.352Z,25.6200
2022-09-03T02:09:55.959Z,25.6100
2022-09-03T02:10:07.092Z,25.6100
2022-09-03T02:10:18.221Z,25.6100
2022-09-03T02:10:29.364Z,25.6100
2022-09-03T02:10:40.534Z,25.6100
2022-09-03T02:10:51.657Z,25.6100
2022-09-03T02:11:02.808Z,25.6100
2022-09-03T02:11:14.932Z,25.6100
2022-09-03T02:11:26.184Z,25.6100
2022-09-03T02:11:37.306Z,25.6200
2022-09-03T02:11:48.584Z,25.6400
2022-09-03T02:11:59.728Z,25.6500
2022-09-03T02:12:10.844Z,25.6600
2022-09-03T02:12:22.044Z,25.6700
2022-09-03T02:12:33.165Z,25.6700
2022-09-03T02:12:44.287Z,25.6600
2022-09-03T02:12:55.427Z,25.6600
2022-09-03T02:13:06.554Z,25.6600
2022-09-03T02:13:17.702Z,25.6600
2022-09-03T02:13:28.854Z,25.6700
2022-09-03T02:13:39.991Z,25.6800
2022-09-03T02:13:51.269Z,25.6900
2022-09-03T02:14:02.462Z,25.7000
2022-09-03T02:14:13.582Z,25.7100
2022-09-03T02:14:24.717Z,25.7200
2022-09-03T02:14:35.843Z,25.7300
2022-09-03T02:14:46.966Z,25.7400
2022-09-03T02:14:58.141Z,25.7400
2022-09-03T02:15:09.335Z,25.7300
2022-09-03T02:15:20.475Z,25.7200
2022-09-03T02:15:31.647Z,25.7100
2022-09-03T02:15:42.793Z,25.7000
2022-09-03T02:15:54.092Z,25.7000
2022-09-03T02:16:05.244Z,25.6900